Seletar Airport
WSSL : now visible

Airfield :











YOU CAN JOIN US ON...

 
LOGIN :

Register | Disclaimer

   EN    FR    IT 

 









Legend :    VFR   Marginal VFR   IFR   Intensive IFR   Very Intensive IFR
Visi :
Ceiling :
>= 8 km
>= 3000ft
5 to 8 km
1000 to 3000 ft
1500m to 5 km
500 to 1000 ft
800 to 1500m
200 to 500 ft
< 800m
< 200 ft
Symbols :   Thunderstorms  Fog  Heavy snow  Heavy precipitations  Wind > 20 kt






- Airport Elevation : 36 ft
- IATA code : XSP


WSSL - Seletar

CURRENT METAR :
  • 211600Z 01007KT CAVOK 26/23 Q1011

EXPIRED METARs :
  • 211500Z 01005KT CAVOK 26/23 Q1011
  • 211400Z 01006KT 340V040 9999 FEW020 SCT150 BKN300 26/24 Q1011
  • 211300Z 04005KT 9999 FEW016 SCT200 26/24 Q1011

TAF TAF WSSL
Valid from the 21 at 12:00 until the 22 at 18:00 UTC


211100Z 2112/2218 04008KT 9999 FEW015 SCT020
TEMPO 2206/2209 3000 TSRA FEW012CB BKN015



MET'MAP, your aeronautical weather chart ! - Copyright ORBIFLY December 2007 - Disclaimer

ORBIFLY MET'MAP TEAM :

Programming & Development : Alexandra Zaïnal
Concept & Development : Baudouin d'Aumeries
Co-Development & Prog : Marc-Olivier Méhu
Technical & hardware support : Manuel Goepfert

Contact : metmap@orbifly.com




SOURCES & CREDITS :

   NOAA       Earth
Advisory